Time;durP1;ratioP1;P1;durP2;ratioP2;P2;SDS_P1;SDS_P2;PMS_P1;PMS_P2;Temp;Humidity;BMP_temperature;BMP_pressure;BME280_temperature;BME280_humidity;BME280_pressure;Samples;Min_cycle;Max_cycle;Signal;HPM_P1;HPM_P2
2023/05/09 00:00:44;;;;;;;;;;;10.80;99.90;;;;;;5029362;28;19925;-63
2023/05/09 00:03:11;;;;;;;;;;;10.80;99.90;;;;;;5041059;28;20229;-64
2023/05/09 00:05:43;;;;;;;;;;;10.80;99.90;;;;;;5040886;28;19936;-63
2023/05/09 00:08:14;;;;;;;;;;;10.90;99.90;;;;;;5039448;28;19991;-63
2023/05/09 00:10:41;;;;;;;;;;;10.90;99.90;;;;;;5039915;28;19925;-62
2023/05/09 00:13:13;;;;;;;;;;;10.80;99.90;;;;;;5030979;28;19936;-63
2023/05/09 00:15:45;;;;;;;;;;;10.80;99.90;;;;;;5043213;28;19936;-63
2023/05/09 00:18:17;;;;;;;;;;;10.80;99.90;;;;;;5034391;28;19933;-63
2023/05/09 00:20:43;;;;;;;;;;;10.80;99.90;;;;;;5046419;28;19978;-63
2023/05/09 00:23:15;;;;;;;;;;;10.80;99.90;;;;;;5045164;28;19929;-63
2023/05/09 00:25:42;;;;;;;;;;;10.80;99.90;;;;;;5044505;28;19925;-63
2023/05/09 00:28:09;;;;;;;;;;;10.70;99.90;;;;;;5030700;28;20380;-63
2023/05/09 00:30:41;;;;;;;;;;;10.70;99.90;;;;;;5041839;28;19982;-63
2023/05/09 00:33:12;;;;;;;;;;;10.80;99.90;;;;;;5045088;28;19925;-63
2023/05/09 00:35:44;;;;;;;;;;;10.80;99.90;;;;;;5039234;28;19925;-63
2023/05/09 00:38:16;;;;;;;;;;;10.80;99.90;;;;;;5027725;28;19928;-63
2023/05/09 00:40:48;;;;;;;;;;;10.80;99.90;;;;;;5041993;28;19932;-63
2023/05/09 00:43:20;;;;;;;;;;;10.70;99.90;;;;;;5028109;28;19929;-63
2023/05/09 00:45:47;;;;;;;;;;;10.70;99.90;;;;;;5026183;28;19969;-63
2023/05/09 00:48:18;;;;;;;;;;;10.80;99.90;;;;;;5043927;28;19990;-63
2023/05/09 00:50:51;;;;;;;;;;;10.80;99.90;;;;;;5022101;28;19983;-63
2023/05/09 00:53:24;;;;;;;;;;;10.80;99.90;;;;;;5044325;28;19928;-63
2023/05/09 00:55:56;;;;;;;;;;;10.80;99.90;;;;;;5017899;28;20279;-63
2023/05/09 00:58:28;;;;;;;;;;;10.70;99.90;;;;;;5032378;28;19924;-63
2023/05/09 01:00:55;;;;;;;;;;;10.70;99.90;;;;;;5041514;28;19936;-63
2023/05/09 01:03:26;;;;;;;;;;;10.70;99.90;;;;;;5048600;28;20393;-62
2023/05/09 01:06:02;;;;;;;;;;;10.70;99.90;;;;;;5041604;28;19982;-63
2023/05/09 01:08:49;;;;;;;;;;;10.70;99.90;;;;;;5034153;28;19925;-63
2023/05/09 01:11:24;;;;;;;;;;;10.80;99.90;;;;;;5052089;28;19936;-63
2023/05/09 01:14:05;;;;;;;;;;;10.80;99.90;;;;;;5032436;28;20032;-63
2023/05/09 01:17:03;;;;;;;;;;;10.80;99.90;;;;;;5043603;28;19940;-62
2023/05/09 01:19:44;;;;;;;;;;;10.90;99.90;;;;;;5038925;28;19936;-63
2023/05/09 01:22:17;;;;;;;;;;;10.90;99.90;;;;;;5027799;28;19936;-63
2023/05/09 01:25:08;;;;;;;;;;;10.90;99.90;;;;;;5018982;28;19975;-63
2023/05/09 01:27:49;;;;;;;;;;;10.70;99.90;;;;;;5035101;28;19928;-63
2023/05/09 01:30:23;;;;;;;;;;;10.60;99.90;;;;;;5033129;28;19925;-63
2023/05/09 01:32:58;;;;;;;;;;;10.40;99.90;;;;;;5029705;28;19929;-63
2023/05/09 01:35:30;;;;;;;;;;;10.30;99.90;;;;;;5032142;28;19975;-63
2023/05/09 01:38:05;;;;;;;;;;;10.20;99.90;;;;;;5032228;28;19947;-62
2023/05/09 01:40:32;;;;;;;;;;;10.10;99.90;;;;;;5029542;28;20372;-63
2023/05/09 01:43:05;;;;;;;;;;;10.10;99.90;;;;;;5031832;28;19987;-63
2023/05/09 01:45:38;;;;;;;;;;;10.10;99.90;;;;;;5020028;28;19976;-63
2023/05/09 01:48:11;;;;;;;;;;;10.10;99.90;;;;;;5035491;28;19967;-63
2023/05/09 01:50:44;;;;;;;;;;;10.20;99.90;;;;;;5046040;28;19971;-63
2023/05/09 01:53:16;;;;;;;;;;;10.20;99.90;;;;;;5033695;28;19929;-63
2023/05/09 01:55:49;;;;;;;;;;;10.20;99.90;;;;;;5028758;28;19932;-63
2023/05/09 01:58:21;;;;;;;;;;;10.20;99.90;;;;;;5044541;28;20349;-63
2023/05/09 02:00:49;;;;;;;;;;;10.20;99.90;;;;;;5033387;28;19935;-63
2023/05/09 02:03:21;;;;;;;;;;;10.20;99.90;;;;;;5029662;28;19929;-63
2023/05/09 02:05:54;;;;;;;;;;;10.20;99.90;;;;;;5043092;28;19932;-63
2023/05/09 02:08:26;;;;;;;;;;;10.30;99.90;;;;;;5023552;28;19925;-63
2023/05/09 02:10:59;;;;;;;;;;;10.30;99.90;;;;;;5027024;28;19929;-63
2023/05/09 02:13:32;;;;;;;;;;;10.40;99.90;;;;;;5025429;28;19975;-63
2023/05/09 02:16:05;;;;;;;;;;;10.40;99.90;;;;;;5018975;28;19925;-63
2023/05/09 02:18:37;;;;;;;;;;;10.40;99.90;;;;;;5029394;28;19982;-63
2023/05/09 02:21:08;;;;;;;;;;;10.40;99.90;;;;;;5031935;28;19971;-63
2023/05/09 02:23:40;;;;;;;;;;;10.40;99.90;;;;;;5046476;28;19929;-63
2023/05/09 02:26:13;;;;;;;;;;;10.50;99.90;;;;;;5030395;28;19990;-63
2023/05/09 02:28:45;;;;;;;;;;;10.50;99.90;;;;;;5030339;28;19952;-62
2023/05/09 02:31:13;;;;;;;;;;;10.50;99.90;;;;;;5030228;28;19976;-63
2023/05/09 02:33:41;;;;;;;;;;;10.50;99.90;;;;;;5029982;28;19928;-63
2023/05/09 02:36:13;;;;;;;;;;;10.50;99.90;;;;;;5043493;28;19980;-63
2023/05/09 02:38:45;;;;;;;;;;;10.50;99.90;;;;;;5026829;28;19932;-63
2023/05/09 02:41:17;;;;;;;;;;;10.50;99.90;;;;;;5017254;28;20212;-63
2023/05/09 02:43:49;;;;;;;;;;;10.50;99.90;;;;;;5022633;28;19972;-63
2023/05/09 02:46:21;;;;;;;;;;;10.50;99.90;;;;;;5034437;28;19947;-63
2023/05/09 02:48:52;;;;;;;;;;;10.40;99.90;;;;;;5045726;28;19937;-63
2023/05/09 02:51:25;;;;;;;;;;;10.30;99.90;;;;;;5035007;28;19925;-62
2023/05/09 02:53:56;;;;;;;;;;;10.30;99.90;;;;;;5032830;28;19955;-63
2023/05/09 02:56:28;;;;;;;;;;;10.30;99.90;;;;;;5038936;28;20437;-63
2023/05/09 02:59:00;;;;;;;;;;;10.30;99.90;;;;;;5028266;28;19932;-63
2023/05/09 03:01:31;;;;;;;;;;;10.20;99.90;;;;;;5028721;28;19936;-63
2023/05/09 03:04:03;;;;;;;;;;;10.20;99.90;;;;;;5036534;28;19932;-63
2023/05/09 03:06:35;;;;;;;;;;;10.20;99.90;;;;;;5029253;28;19967;-62
2023/05/09 03:09:07;;;;;;;;;;;10.20;99.90;;;;;;5030008;28;19941;-63
2023/05/09 03:11:38;;;;;;;;;;;10.20;99.90;;;;;;5030115;28;19956;-63
2023/05/09 03:14:12;;;;;;;;;;;10.10;99.90;;;;;;5029248;28;19925;-63
2023/05/09 03:16:43;;;;;;;;;;;10.10;99.90;;;;;;5031525;28;19925;-63
2023/05/09 03:19:24;;;;;;;;;;;10.00;99.90;;;;;;5027466;28;20008;-62
2023/05/09 03:21:56;;;;;;;;;;;10.00;99.90;;;;;;5027474;28;19929;-63
2023/05/09 03:24:31;;;;;;;;;;;10.00;99.90;;;;;;5027879;28;20444;-63
2023/05/09 03:27:02;;;;;;;;;;;10.00;99.90;;;;;;5028889;28;20006;-63
2023/05/09 03:29:29;;;;;;;;;;;10.00;99.90;;;;;;5031652;28;19963;-63
2023/05/09 03:31:57;;;;;;;;;;;9.90;99.90;;;;;;5028635;28;19936;-63
2023/05/09 03:34:29;;;;;;;;;;;10.00;99.90;;;;;;5028181;28;19937;-63
2023/05/09 03:37:02;;;;;;;;;;;10.00;99.90;;;;;;5029958;28;19928;-63
2023/05/09 03:39:37;;;;;;;;;;;9.90;99.90;;;;;;5027605;28;19931;-63
2023/05/09 03:42:09;;;;;;;;;;;9.90;99.90;;;;;;5044504;28;19929;-63
2023/05/09 03:44:43;;;;;;;;;;;9.90;99.90;;;;;;5030479;28;19933;-63
2023/05/09 03:47:17;;;;;;;;;;;9.80;99.90;;;;;;5025970;28;19937;-63
2023/05/09 03:49:49;;;;;;;;;;;9.90;99.90;;;;;;5041103;28;20020;-63
2023/05/09 03:52:22;;;;;;;;;;;9.90;99.90;;;;;;5018043;28;19978;-62
2023/05/09 03:54:49;;;;;;;;;;;9.90;99.90;;;;;;5023960;28;20405;-63
2023/05/09 03:57:21;;;;;;;;;;;9.90;99.90;;;;;;5022826;28;19925;-63
2023/05/09 03:59:55;;;;;;;;;;;9.90;99.90;;;;;;5043365;28;19925;-62
2023/05/09 04:02:26;;;;;;;;;;;10.00;99.90;;;;;;5030675;28;20395;-63
2023/05/09 04:04:59;;;;;;;;;;;10.00;99.90;;;;;;5027511;28;19929;-63
2023/05/09 04:07:32;;;;;;;;;;;10.00;99.90;;;;;;5046514;28;19951;-63
2023/05/09 04:09:59;;;;;;;;;;;10.00;99.90;;;;;;5035508;28;19926;-64
2023/05/09 04:12:31;;;;;;;;;;;10.00;99.90;;;;;;5035051;28;19925;-63
2023/05/09 04:15:03;;;;;;;;;;;10.00;99.90;;;;;;5024936;28;19925;-62
2023/05/09 04:17:35;;;;;;;;;;;10.00;99.90;;;;;;5026071;28;19925;-63
2023/05/09 04:20:07;;;;;;;;;;;10.00;99.90;;;;;;5043223;28;19924;-64
2023/05/09 04:22:33;;;;;;;;;;;10.00;99.90;;;;;;5030174;28;19924;-64
2023/05/09 04:25:06;;;;;;;;;;;10.00;99.90;;;;;;5030945;28;19932;-63
2023/05/09 04:27:38;;;;;;;;;;;10.00;99.90;;;;;;5028815;28;19928;-63
2023/05/09 04:30:09;;;;;;;;;;;10.00;99.90;;;;;;5038822;28;20389;-63
2023/05/09 04:32:45;;;;;;;;;;;10.00;99.90;;;;;;5028441;28;19932;-63
2023/05/09 04:35:17;;;;;;;;;;;10.10;99.90;;;;;;5024974;28;19979;-63
2023/05/09 04:37:51;;;;;;;;;;;10.10;99.90;;;;;;5024955;28;20023;-63
2023/05/09 04:40:18;;;;;;;;;;;10.10;99.90;;;;;;5029472;28;19987;-62
2023/05/09 04:42:56;;;;;;;;;;;10.10;99.90;;;;;;5030114;28;19935;-63
2023/05/09 04:45:29;;;;;;;;;;;10.10;99.90;;;;;;5026477;28;19929;-64
2023/05/09 04:48:01;;;;;;;;;;;10.20;99.90;;;;;;5014195;28;20321;-64
2023/05/09 04:50:33;;;;;;;;;;;10.20;99.90;;;;;;5037138;28;20397;-65
2023/05/09 04:52:59;;;;;;;;;;;10.30;99.90;;;;;;5022703;28;20322;-65
2023/05/09 04:55:31;;;;;;;;;;;10.30;99.90;;;;;;5020796;28;19932;-65
2023/05/09 04:57:59;;;;;;;;;;;10.30;99.90;;;;;;5030215;28;19979;-65
2023/05/09 05:00:31;;;;;;;;;;;10.40;99.90;;;;;;5022730;28;19933;-65
2023/05/09 05:03:03;;;;;;;;;;;10.40;99.90;;;;;;5024502;28;19925;-65
2023/05/09 05:05:35;;;;;;;;;;;10.40;99.90;;;;;;5016664;28;19932;-65
2023/05/09 05:08:07;;;;;;;;;;;10.50;99.90;;;;;;5028587;28;19929;-65
2023/05/09 05:10:40;;;;;;;;;;;10.50;99.90;;;;;;5019264;28;19929;-65
2023/05/09 05:13:14;;;;;;;;;;;10.50;99.90;;;;;;5033814;28;19936;-65
2023/05/09 05:15:49;;;;;;;;;;;10.50;99.90;;;;;;5012586;28;20373;-64
2023/05/09 05:18:20;;;;;;;;;;;10.50;99.90;;;;;;5043380;28;20300;-65
2023/05/09 05:20:53;;;;;;;;;;;10.60;99.90;;;;;;5026921;28;19924;-65
2023/05/09 05:23:24;;;;;;;;;;;10.60;99.90;;;;;;5030476;28;19976;-65
2023/05/09 05:25:56;;;;;;;;;;;10.60;99.90;;;;;;5025801;28;19925;-65
2023/05/09 05:28:30;;;;;;;;;;;10.60;99.90;;;;;;5024260;28;19983;-65
2023/05/09 05:31:02;;;;;;;;;;;10.60;99.90;;;;;;5017795;28;19928;-65
2023/05/09 05:33:34;;;;;;;;;;;10.70;99.90;;;;;;5013376;28;19925;-63
2023/05/09 05:36:06;;;;;;;;;;;10.70;99.90;;;;;;5039307;28;20565;-64
2023/05/09 05:38:38;;;;;;;;;;;10.80;99.90;;;;;;5027533;28;20321;-63
2023/05/09 05:41:10;;;;;;;;;;;10.90;99.90;;;;;;5033675;28;19925;-63
2023/05/09 05:43:43;;;;;;;;;;;11.00;99.90;;;;;;5026413;28;20012;-64
2023/05/09 05:46:15;;;;;;;;;;;11.00;99.90;;;;;;5018919;28;19980;-64
2023/05/09 05:48:42;;;;;;;;;;;11.10;99.90;;;;;;5033256;28;19925;-63
2023/05/09 05:51:14;;;;;;;;;;;11.20;99.90;;;;;;5028637;28;19932;-66
2023/05/09 05:53:46;;;;;;;;;;;11.20;99.90;;;;;;5050197;28;19940;-63
2023/05/09 05:56:19;;;;;;;;;;;11.20;99.90;;;;;;5022633;28;19933;-63
2023/05/09 05:58:51;;;;;;;;;;;11.40;99.90;;;;;;5036689;28;19932;-63
2023/05/09 06:01:23;;;;;;;;;;;11.50;99.90;;;;;;5031287;28;19933;-63
2023/05/09 06:03:56;;;;;;;;;;;11.60;99.90;;;;;;5032525;28;19951;-63
2023/05/09 06:06:26;;;;;;;;;;;11.60;99.90;;;;;;5030023;28;19933;-63
2023/05/09 06:08:54;;;;;;;;;;;11.60;99.90;;;;;;5021364;28;19925;-63
2023/05/09 06:11:26;;;;;;;;;;;11.60;99.90;;;;;;5052103;28;19933;-63
2023/05/09 06:13:58;;;;;;;;;;;11.60;99.90;;;;;;5032588;28;20309;-63
2023/05/09 06:16:26;;;;;;;;;;;11.60;99.90;;;;;;5032535;28;20003;-63
2023/05/09 06:18:58;;;;;;;;;;;11.70;99.90;;;;;;5019905;28;19925;-63
2023/05/09 06:21:30;;;;;;;;;;;11.70;99.90;;;;;;5024411;28;19925;-63
2023/05/09 06:23:56;;;;;;;;;;;11.80;99.90;;;;;;5024145;28;19924;-63
2023/05/09 06:26:28;;;;;;;;;;;11.80;99.90;;;;;;5029814;28;19925;-63
2023/05/09 06:29:00;;;;;;;;;;;11.80;99.90;;;;;;5027935;28;20401;-63
2023/05/09 06:31:37;;;;;;;;;;;11.90;99.90;;;;;;5035381;28;19925;-63
2023/05/09 06:34:08;;;;;;;;;;;11.90;99.90;;;;;;5047242;28;19929;-63
2023/05/09 06:36:40;;;;;;;;;;;11.90;99.90;;;;;;5039661;28;20279;-63
2023/05/09 06:39:12;;;;;;;;;;;11.80;99.90;;;;;;5041602;28;19971;-63
2023/05/09 06:41:44;;;;;;;;;;;11.80;99.90;;;;;;5043207;28;19925;-63
2023/05/09 06:44:23;;;;;;;;;;;11.90;99.90;;;;;;5040902;28;20027;-63
2023/05/09 06:46:54;;;;;;;;;;;11.90;99.90;;;;;;5040926;28;19924;-63
2023/05/09 06:49:26;;;;;;;;;;;11.90;99.90;;;;;;5040336;28;19932;-63
2023/05/09 06:51:53;;;;;;;;;;;11.90;99.90;;;;;;5041053;28;20017;-63
2023/05/09 06:54:25;;;;;;;;;;;12.00;99.90;;;;;;5042043;28;20389;-63
2023/05/09 06:56:56;;;;;;;;;;;12.00;99.90;;;;;;5045196;28;19994;-63
2023/05/09 06:59:28;;;;;;;;;;;12.10;99.90;;;;;;5045373;28;19940;-63
2023/05/09 07:02:00;;;;;;;;;;;12.10;99.90;;;;;;5024471;28;19925;-63
2023/05/09 07:04:31;;;;;;;;;;;12.10;99.90;;;;;;5040973;28;20456;-64
2023/05/09 07:07:03;;;;;;;;;;;12.10;99.90;;;;;;5040304;28;19971;-63
2023/05/09 07:09:35;;;;;;;;;;;12.20;99.90;;;;;;5029117;28;19955;-63
2023/05/09 07:12:07;;;;;;;;;;;12.20;99.90;;;;;;5020730;28;19936;-63
2023/05/09 07:14:33;;;;;;;;;;;12.30;99.90;;;;;;5039674;28;19928;-63
2023/05/09 07:17:05;;;;;;;;;;;12.30;99.90;;;;;;5026842;28;19925;-63
2023/05/09 07:19:37;;;;;;;;;;;12.40;99.90;;;;;;5045295;28;20423;-63
2023/05/09 07:22:09;;;;;;;;;;;12.40;99.90;;;;;;5034540;28;19936;-63
2023/05/09 07:24:43;;;;;;;;;;;12.50;99.90;;;;;;5034567;28;19929;-63
2023/05/09 07:27:14;;;;;;;;;;;12.70;99.90;;;;;;5047139;28;20324;-63
2023/05/09 07:29:47;;;;;;;;;;;12.80;99.90;;;;;;5047146;28;19928;-63
2023/05/09 07:32:20;;;;;;;;;;;12.90;99.90;;;;;;5038302;28;19932;-63
2023/05/09 07:34:51;;;;;;;;;;;13.00;99.90;;;;;;5039249;28;19925;-63
2023/05/09 07:37:18;;;;;;;;;;;13.10;99.90;;;;;;5026985;28;20048;-63
2023/05/09 07:39:51;;;;;;;;;;;13.30;99.90;;;;;;5040902;28;19974;-63
2023/05/09 07:42:22;;;;;;;;;;;13.30;99.90;;;;;;5051305;28;19932;-63
2023/05/09 07:44:55;;;;;;;;;;;13.40;99.90;;;;;;5030243;28;19925;-63
2023/05/09 07:47:26;;;;;;;;;;;13.50;99.90;;;;;;5047964;28;20390;-63
2023/05/09 07:49:59;;;;;;;;;;;13.60;99.90;;;;;;5048279;28;19976;-63
2023/05/09 07:52:30;;;;;;;;;;;13.70;99.90;;;;;;5047452;28;19932;-63
2023/05/09 07:55:02;;;;;;;;;;;13.80;99.90;;;;;;5044688;28;19982;-63
2023/05/09 07:57:34;;;;;;;;;;;13.90;99.90;;;;;;5043901;28;19925;-63
2023/05/09 08:00:07;;;;;;;;;;;13.90;99.90;;;;;;5015441;28;20024;-63
2023/05/09 08:02:39;;;;;;;;;;;14.10;99.90;;;;;;5043345;28;19945;-63
2023/05/09 08:05:06;;;;;;;;;;;14.20;99.90;;;;;;5047541;28;19924;-63
2023/05/09 08:07:33;;;;;;;;;;;14.30;99.90;;;;;;5046934;28;19928;-63
2023/05/09 08:10:00;;;;;;;;;;;14.40;99.90;;;;;;5047009;28;19928;-63
2023/05/09 08:12:31;;;;;;;;;;;14.60;99.90;;;;;;5044981;28;19971;-63
2023/05/09 08:15:03;;;;;;;;;;;14.60;99.90;;;;;;5044350;28;19929;-63
2023/05/09 08:17:35;;;;;;;;;;;14.80;99.90;;;;;;5036569;28;19968;-63
2023/05/09 08:20:07;;;;;;;;;;;14.80;99.90;;;;;;5041129;28;19929;-63
2023/05/09 08:22:39;;;;;;;;;;;14.80;99.90;;;;;;5043028;28;19955;-63
2023/05/09 08:25:12;;;;;;;;;;;14.90;99.90;;;;;;5048796;28;19930;-63
2023/05/09 08:27:44;;;;;;;;;;;14.90;99.90;;;;;;5034396;28;19925;-63
2023/05/09 08:30:15;;;;;;;;;;;14.90;99.90;;;;;;5036995;28;19933;-63
2023/05/09 08:32:42;;;;;;;;;;;15.10;99.90;;;;;;5042811;28;19929;-63
2023/05/09 08:35:14;;;;;;;;;;;15.20;99.90;;;;;;5042165;28;19932;-63
2023/05/09 08:37:46;;;;;;;;;;;15.20;99.90;;;;;;5029982;28;20342;-63
2023/05/09 08:40:18;;;;;;;;;;;15.20;99.90;;;;;;5046252;28;20484;-63
2023/05/09 08:42:47;;;;;;;;;;;15.30;99.90;;;;;;5028443;28;19925;-63
2023/05/09 08:45:22;;;;;;;;;;;15.40;99.90;;;;;;5044337;28;20015;-63
2023/05/09 08:47:54;;;;;;;;;;;15.40;99.90;;;;;;5050661;28;19928;-63
2023/05/09 08:50:21;;;;;;;;;;;15.40;99.90;;;;;;5034113;28;20308;-63
2023/05/09 08:52:53;;;;;;;;;;;15.40;99.90;;;;;;5020218;28;20019;-63
2023/05/09 08:55:25;;;;;;;;;;;15.50;99.90;;;;;;5038045;28;20348;-63
2023/05/09 08:57:57;;;;;;;;;;;15.80;99.90;;;;;;5031143;28;19925;-63
2023/05/09 09:00:30;;;;;;;;;;;16.00;99.90;;;;;;5040566;28;19929;-63
2023/05/09 09:03:05;;;;;;;;;;;16.20;99.90;;;;;;5044071;28;19925;-63
2023/05/09 09:05:40;;;;;;;;;;;16.30;99.90;;;;;;5019368;28;19936;-63
2023/05/09 09:08:13;;;;;;;;;;;16.50;99.90;;;;;;5048791;28;19929;-63
2023/05/09 09:10:47;;;;;;;;;;;16.70;99.90;;;;;;5046615;28;19931;-63
2023/05/09 09:13:16;;;;;;;;;;;16.80;99.90;;;;;;5048833;28;19925;-63
2023/05/09 09:15:44;;;;;;;;;;;16.70;99.90;;;;;;5039745;28;19990;-63
2023/05/09 09:18:19;;;;;;;;;;;16.70;99.90;;;;;;5041029;28;19979;-62
2023/05/09 09:20:56;;;;;;;;;;;16.60;99.90;;;;;;5041367;28;20409;-63
2023/05/09 09:23:29;;;;;;;;;;;16.70;99.90;;;;;;5032589;28;19929;-63
2023/05/09 09:26:02;;;;;;;;;;;16.70;99.90;;;;;;5047326;28;20389;-63
2023/05/09 09:28:34;;;;;;;;;;;16.90;99.90;;;;;;5047806;28;19925;-63
2023/05/09 09:31:19;;;;;;;;;;;17.00;99.90;;;;;;5049052;28;19929;-62
2023/05/09 09:33:47;;;;;;;;;;;17.00;99.90;;;;;;5046785;28;20329;-63
2023/05/09 09:36:31;;;;;;;;;;;17.20;99.90;;;;;;5048938;28;19924;-63
2023/05/09 09:39:03;;;;;;;;;;;17.40;99.90;;;;;;5046904;28;19952;-63
2023/05/09 09:41:36;;;;;;;;;;;17.50;99.90;;;;;;5047624;28;19925;-63
2023/05/09 09:44:09;;;;;;;;;;;17.60;99.90;;;;;;5024987;28;19925;-63
2023/05/09 09:46:40;;;;;;;;;;;17.60;99.90;;;;;;5048650;28;19939;-63
2023/05/09 09:49:12;;;;;;;;;;;17.80;99.90;;;;;;5047478;28;19925;-63
2023/05/09 09:51:44;;;;;;;;;;;17.80;99.90;;;;;;5047423;28;19929;-63
2023/05/09 09:54:15;;;;;;;;;;;18.00;99.90;;;;;;5047235;28;20310;-63
2023/05/09 09:56:48;;;;;;;;;;;18.00;99.90;;;;;;5044758;28;19935;-63
2023/05/09 09:59:22;;;;;;;;;;;18.20;99.90;;;;;;5046609;28;19957;-63
2023/05/09 10:01:55;;;;;;;;;;;18.10;99.90;;;;;;5044671;28;20389;-63
2023/05/09 10:04:28;;;;;;;;;;;18.10;99.90;;;;;;5041800;28;20436;-63
2023/05/09 10:07:02;;;;;;;;;;;18.10;99.90;;;;;;5037409;28;19979;-63
2023/05/09 10:09:34;;;;;;;;;;;18.20;99.90;;;;;;5041165;28;19978;-63
2023/05/09 10:12:01;;;;;;;;;;;18.20;99.90;;;;;;5042777;28;19931;-63
2023/05/09 10:14:33;;;;;;;;;;;18.30;99.90;;;;;;5026350;28;19925;-63
2023/05/09 10:17:05;;;;;;;;;;;18.60;99.90;;;;;;5052566;28;19925;-63
2023/05/09 10:19:40;;;;;;;;;;;18.70;99.90;;;;;;5051982;28;19956;-63
2023/05/09 10:22:14;;;;;;;;;;;18.80;99.90;;;;;;5045976;28;19929;-63
2023/05/09 10:24:45;;;;;;;;;;;19.00;99.90;;;;;;5032098;28;19925;-63
2023/05/09 10:27:20;;;;;;;;;;;19.10;99.90;;;;;;5047462;28;19929;-64
2023/05/09 10:30:03;;;;;;;;;;;19.10;99.90;;;;;;5023458;28;19929;-63
2023/05/09 10:32:50;;;;;;;;;;;19.20;99.90;;;;;;5047755;28;19929;-63
2023/05/09 10:35:26;;;;;;;;;;;19.30;99.90;;;;;;5043234;28;20348;-63
2023/05/09 10:37:59;;;;;;;;;;;19.30;99.90;;;;;;5048424;28;20282;-63
2023/05/09 10:40:32;;;;;;;;;;;19.40;99.90;;;;;;5034745;28;20382;-62
2023/05/09 10:43:06;;;;;;;;;;;19.50;99.90;;;;;;5048903;28;19929;-63
2023/05/09 10:45:37;;;;;;;;;;;19.60;99.90;;;;;;5049026;28;19932;-63
2023/05/09 10:48:07;;;;;;;;;;;19.70;99.90;;;;;;5051765;28;19929;-63
2023/05/09 10:50:41;;;;;;;;;;;19.60;99.90;;;;;;5045945;28;19978;-63
2023/05/09 10:53:15;;;;;;;;;;;19.50;99.90;;;;;;5041118;28;19928;-63
2023/05/09 10:55:55;;;;;;;;;;;19.50;99.90;;;;;;5029886;28;19929;-63
2023/05/09 10:58:28;;;;;;;;;;;19.50;99.90;;;;;;5043092;28;20261;-63
2023/05/09 11:01:01;;;;;;;;;;;19.40;99.90;;;;;;5032480;28;19925;-62
2023/05/09 11:03:51;;;;;;;;;;;19.20;99.90;;;;;;5043894;28;19933;-63
2023/05/09 11:06:49;;;;;;;;;;;19.20;99.90;;;;;;5043346;28;19925;-63
2023/05/09 11:09:23;;;;;;;;;;;19.40;99.90;;;;;;5046816;28;20015;-63
2023/05/09 11:11:56;;;;;;;;;;;19.40;99.90;;;;;;5046912;28;20003;-63
2023/05/09 11:14:31;;;;;;;;;;;19.30;99.90;;;;;;5030984;28;20028;-63
2023/05/09 11:16:59;;;;;;;;;;;19.30;99.90;;;;;;5042207;28;19925;-63
2023/05/09 11:19:55;;;;;;;;;;;19.40;99.90;;;;;;5036531;28;19979;-63
2023/05/09 11:22:26;;;;;;;;;;;19.50;99.90;;;;;;5035394;28;19929;-63
2023/05/09 11:25:00;;;;;;;;;;;19.60;99.90;;;;;;5023008;28;19932;-63
2023/05/09 11:27:37;;;;;;;;;;;19.70;99.90;;;;;;5039800;28;19929;-63
2023/05/09 11:30:04;;;;;;;;;;;19.90;99.90;;;;;;5045743;28;20397;-63
2023/05/09 11:32:40;;;;;;;;;;;20.00;99.90;;;;;;5044167;28;19936;-63
2023/05/09 11:35:14;;;;;;;;;;;20.10;99.90;;;;;;5043897;28;19939;-63
2023/05/09 11:37:49;;;;;;;;;;;20.10;99.90;;;;;;5040066;28;19924;-63
2023/05/09 11:40:22;;;;;;;;;;;20.20;99.90;;;;;;5028928;28;19929;-63
2023/05/09 11:42:55;;;;;;;;;;;20.40;99.90;;;;;;5040866;28;19929;-63
2023/05/09 11:45:28;;;;;;;;;;;20.50;99.90;;;;;;5040497;28;19929;-63
2023/05/09 11:48:00;;;;;;;;;;;20.60;99.90;;;;;;5040869;28;19975;-62
2023/05/09 11:50:32;;;;;;;;;;;20.60;99.90;;;;;;5046656;28;19937;-63
2023/05/09 11:53:07;;;;;;;;;;;20.70;99.90;;;;;;5039751;28;19925;-63
2023/05/09 11:55:40;;;;;;;;;;;20.90;99.90;;;;;;5039317;28;19924;-62
2023/05/09 11:58:11;;;;;;;;;;;20.80;99.90;;;;;;5025544;28;19979;-63
2023/05/09 12:00:44;;;;;;;;;;;20.80;99.90;;;;;;5044479;28;19933;-61
2023/05/09 12:03:15;;;;;;;;;;;20.70;99.90;;;;;;5026154;28;20473;-62
2023/05/09 12:05:47;;;;;;;;;;;20.70;99.90;;;;;;5046710;28;19933;-63
2023/05/09 12:08:20;;;;;;;;;;;20.70;99.90;;;;;;5039952;28;19925;-62
2023/05/09 12:10:51;;;;;;;;;;;20.60;99.90;;;;;;5039802;28;19929;-63
2023/05/09 12:13:23;;;;;;;;;;;20.60;99.90;;;;;;5039791;28;19925;-62
2023/05/09 12:16:01;;;;;;;;;;;20.60;99.90;;;;;;5042552;28;19933;-63
2023/05/09 12:18:33;;;;;;;;;;;20.60;99.90;;;;;;5040557;28;19938;-63
2023/05/09 12:21:00;;;;;;;;;;;20.70;99.90;;;;;;5047319;28;19931;-63
2023/05/09 12:23:35;;;;;;;;;;;20.70;99.90;;;;;;5046242;28;20034;-63
2023/05/09 12:26:07;;;;;;;;;;;20.70;99.90;;;;;;5045733;28;19933;-63
2023/05/09 12:28:39;;;;;;;;;;;20.80;99.90;;;;;;5047971;28;19955;-62
2023/05/09 12:31:11;;;;;;;;;;;20.80;99.90;;;;;;5047641;28;19936;-63
2023/05/09 12:33:43;;;;;;;;;;;20.90;99.90;;;;;;5050150;28;19924;-63
2023/05/09 12:36:15;;;;;;;;;;;20.80;99.90;;;;;;5045122;28;19999;-63
2023/05/09 12:38:53;;;;;;;;;;;20.80;99.90;;;;;;5046756;28;20488;-63
2023/05/09 12:41:25;;;;;;;;;;;20.90;99.90;;;;;;5043899;28;19960;-61
2023/05/09 12:43:57;;;;;;;;;;;20.90;99.90;;;;;;5046488;28;19924;-63
2023/05/09 12:46:29;;;;;;;;;;;20.90;99.90;;;;;;5045770;28;19929;-63
2023/05/09 12:49:00;;;;;;;;;;;21.10;99.90;;;;;;5041910;28;19932;-64
2023/05/09 12:51:32;;;;;;;;;;;21.40;99.90;;;;;;5033571;28;19925;-61
2023/05/09 12:54:04;;;;;;;;;;;21.60;99.90;;;;;;5040995;28;19948;-63
2023/05/09 12:56:34;;;;;;;;;;;21.50;99.90;;;;;;5045067;28;19925;-62
2023/05/09 12:59:09;;;;;;;;;;;21.50;99.90;;;;;;5031174;28;19929;-62
2023/05/09 13:01:41;;;;;;;;;;;21.60;99.90;;;;;;5045179;28;19929;-63
2023/05/09 13:04:13;;;;;;;;;;;21.50;99.90;;;;;;5046269;28;19928;-63
2023/05/09 13:06:49;;;;;;;;;;;21.40;99.90;;;;;;5038730;28;20011;-63
2023/05/09 13:09:21;;;;;;;;;;;21.40;99.90;;;;;;5052593;28;20027;-63
2023/05/09 13:11:53;;;;;;;;;;;21.40;99.90;;;;;;5038142;28;19929;-63
2023/05/09 13:14:25;;;;;;;;;;;21.50;99.90;;;;;;5049209;28;20256;-63
2023/05/09 13:16:52;;;;;;;;;;;21.60;99.90;;;;;;5050915;28;20337;-63
2023/05/09 13:19:24;;;;;;;;;;;21.70;99.90;;;;;;5047328;28;19932;-63
2023/05/09 13:21:51;;;;;;;;;;;21.70;99.90;;;;;;5049490;28;19983;-62
2023/05/09 13:24:23;;;;;;;;;;;21.60;99.90;;;;;;5047314;28;19928;-63
2023/05/09 13:26:49;;;;;;;;;;;21.70;99.90;;;;;;5047357;28;19932;-63
2023/05/09 13:29:21;;;;;;;;;;;21.70;99.90;;;;;;5045247;28;19925;-62
2023/05/09 13:31:53;;;;;;;;;;;21.60;99.90;;;;;;5034521;28;19932;-63
2023/05/09 13:34:24;;;;;;;;;;;21.70;99.90;;;;;;5052091;28;20523;-63
2023/05/09 13:36:51;;;;;;;;;;;21.70;99.90;;;;;;5038480;28;19925;-63
2023/05/09 13:39:23;;;;;;;;;;;21.70;99.90;;;;;;5054724;28;19931;-62
2023/05/09 13:41:55;;;;;;;;;;;21.70;99.90;;;;;;5053309;28;20911;-63
2023/05/09 13:44:22;;;;;;;;;;;21.80;99.90;;;;;;5048238;28;19951;-71
2023/05/09 13:46:56;;;;;;;;;;;21.80;99.90;;;;;;5032507;28;19928;-63
2023/05/09 13:49:28;;;;;;;;;;;21.90;99.90;;;;;;5040249;28;19929;-63
2023/05/09 13:51:59;;;;;;;;;;;22.20;99.90;;;;;;5029080;28;19929;-62
2023/05/09 13:54:34;;;;;;;;;;;22.40;99.90;;;;;;5048633;28;19932;-63
2023/05/09 13:57:06;;;;;;;;;;;22.60;99.90;;;;;;5046443;28;19979;-65
2023/05/09 13:59:33;;;;;;;;;;;22.70;99.90;;;;;;5048625;28;19940;-63
2023/05/09 14:02:06;;;;;;;;;;;22.60;99.90;;;;;;5051158;28;20470;-63
2023/05/09 14:04:37;;;;;;;;;;;22.60;99.90;;;;;;5032959;28;20538;-63
2023/05/09 14:07:13;;;;;;;;;;;22.60;99.90;;;;;;5050305;28;20344;-63
2023/05/09 14:09:46;;;;;;;;;;;22.90;99.90;;;;;;5034996;28;19933;-63
2023/05/09 14:12:13;;;;;;;;;;;23.20;99.90;;;;;;5044035;28;19929;-63
2023/05/09 14:14:40;;;;;;;;;;;23.50;99.90;;;;;;5042148;28;19925;-62
2023/05/09 14:17:12;;;;;;;;;;;23.50;99.90;;;;;;5041090;28;19927;-63
2023/05/09 14:19:43;;;;;;;;;;;23.60;99.90;;;;;;5032707;28;19929;-63
2023/05/09 14:22:15;;;;;;;;;;;23.90;99.90;;;;;;5043328;28;19936;-62
2023/05/09 14:24:47;;;;;;;;;;;24.10;99.90;;;;;;5049241;28;19925;-63
2023/05/09 14:27:14;;;;;;;;;;;24.30;99.90;;;;;;5031008;28;20351;-61
2023/05/09 14:29:45;;;;;;;;;;;24.50;99.90;;;;;;5046593;28;19925;-63
2023/05/09 14:32:17;;;;;;;;;;;24.60;99.90;;;;;;5043457;28;19929;-62
2023/05/09 14:34:48;;;;;;;;;;;24.50;99.90;;;;;;5042693;28;19928;-63
2023/05/09 14:37:15;;;;;;;;;;;24.50;99.90;;;;;;5040535;28;19928;-62
2023/05/09 14:39:48;;;;;;;;;;;24.80;99.90;;;;;;5043363;28;19929;-63
2023/05/09 14:42:20;;;;;;;;;;;25.00;99.90;;;;;;5039107;28;19936;-63
2023/05/09 14:44:51;;;;;;;;;;;25.00;99.90;;;;;;5032034;28;20308;-63
2023/05/09 14:47:23;;;;;;;;;;;24.90;99.90;;;;;;5045257;28;19925;-63